Etusivu
METAR-TAF:

METAR-TAF

Lentoasemat :

Göteborg-Landvetter, Ruotsi

Landvetterin lentoasema

Leveyspiiri: 57-40N, Pituuspiiri: 012-18E, korkeus merenpinnasta: 169 m

Tämänhetkinen sää

Tämä raportti tehtiin 13 minuuttia sitten, kello 04.50 UTC
Tuuli 3 kn lännestä
Lämpötila 9°C
Kosteus 87%
Ilmanpaine 1014 hPa
Näkyvyys 10 km tai enemmän
ei pilviä alle 1500 m:ssä eikä cumulonimbus-pilviä

METAR: ESGG 230450Z 27003KT CAVOK 09/07 Q1014

Aika: 07:03 (05:03 UTC)

Sääennuste

Tämä raportti tehtiin 5 tuntia ja 32 minuuttia sitten, kello 23.31 UTC
Ennuste voimassa 23. päivästä klo 00 UTC - 23. päivään klo 24 UTC
Tuuli 4 kn lännestä
Näkyvyys 10 km tai enemmän
ei pilviä alle 1500 m:ssä eikä cumulonimbus-pilviä
Ajoittain
23. päivästä klo 00 UTC - 23. päivään klo 04 UTC
Näkyvyys: 0300 m
sumuhattaroita

TAF: ESGG 222331Z 2300/2324 27004KT CAVOK TEMPO 2300/2304 0300 BCFG

Säähavainnot ja -ennusteet yli 4000 lentoasemalta (METAR- ja TAF-raportit).

Käytössä olevat sääasemat on merkitty karttaan keltaisilla ja punaisilla pisteillä.

Aseta hiiri pisteen päälle nähdäksesi sääaseman nimen.

Klikkaa sitten nähdäksesi säähavainnot ja -ennusteet.

Kartan vaihtaminen: klikkaa mustalla rastilla varustettuja vihreitä pisteitä, niin voit zoomata sisään; viivalla varustettua vihreää pistettä, niin voit zoomata ulos tai vihreitä nuolia, niin pääset viereisille kartoille.


METAR-TAF: